Time;durP1;ratioP1;P1;durP2;ratioP2;P2;SDS_P1;SDS_P2;PMS_P1;PMS_P2;Temp;Humidity;BMP_temperature;BMP_pressure;BME280_temperature;BME280_humidity;BME280_pressure;Samples;Min_cycle;Max_cycle;Signal;HPM_P1;HPM_P2
2022/11/19 00:00:51;;;;;;;24.47;18.50;;;;;;;;;;5046486;28;20262;-37
2022/11/19 00:03:18;;;;;;;23.67;17.00;;;;;;;;;;5041708;28;20801;-37
2022/11/19 00:05:45;;;;;;;23.23;17.23;;;;;;;;;;5045346;28;20448;-37
2022/11/19 00:08:13;;;;;;;26.57;18.03;;;;;;;;;;5047077;28;20424;-37
2022/11/19 00:10:39;;;;;;;36.23;21.30;;;;;;;;;;5045700;28;20183;-37
2022/11/19 00:13:07;;;;;;;37.43;24.37;;;;;;;;;;5046141;28;20420;-36
2022/11/19 00:15:34;;;;;;;38.00;26.07;;;;;;;;;;5041459;28;20449;-37
2022/11/19 00:18:00;;;;;;;35.17;22.63;;;;;;;;;;5024862;28;20953;-37
2022/11/19 00:20:26;;;;;;;45.40;28.13;;;;;;;;;;5042921;28;21274;-36
2022/11/19 00:22:54;;;;;;;36.50;25.00;;;;;;;;;;5043438;28;20208;-37
2022/11/19 00:25:20;;;;;;;38.77;26.60;;;;;;;;;;5042976;28;20425;-37
2022/11/19 00:27:47;;;;;;;39.03;26.33;;;;;;;;;;5022871;28;20713;-36
2022/11/19 00:30:13;;;;;;;42.93;28.60;;;;;;;;;;5044220;28;20185;-37
2022/11/19 00:32:39;;;;;;;43.23;29.40;;;;;;;;;;5044221;28;20420;-37
2022/11/19 00:35:06;;;;;;;40.33;28.77;;;;;;;;;;5040640;28;21385;-36
2022/11/19 00:37:32;;;;;;;43.13;29.03;;;;;;;;;;5045250;28;20847;-37
2022/11/19 00:39:58;;;;;;;40.03;27.63;;;;;;;;;;5041085;28;21798;-37
2022/11/19 00:42:24;;;;;;;38.50;27.00;;;;;;;;;;5040960;28;21042;-37
2022/11/19 00:44:50;;;;;;;40.63;27.00;;;;;;;;;;5042271;28;20653;-37
2022/11/19 00:47:16;;;;;;;42.47;28.77;;;;;;;;;;5042352;28;20225;-37
2022/11/19 00:49:42;;;;;;;44.53;28.73;;;;;;;;;;5039201;28;20214;-37
2022/11/19 00:52:09;;;;;;;41.13;28.33;;;;;;;;;;5039867;28;20183;-37
2022/11/19 00:54:35;;;;;;;44.07;27.77;;;;;;;;;;5040907;28;20421;-37
2022/11/19 00:57:01;;;;;;;40.83;27.87;;;;;;;;;;5030935;28;20745;-37
2022/11/19 00:59:27;;;;;;;41.23;28.20;;;;;;;;;;5040147;28;20421;-37
2022/11/19 01:01:53;;;;;;;44.47;28.53;;;;;;;;;;5045815;28;21034;-37
2022/11/19 01:04:19;;;;;;;44.10;28.37;;;;;;;;;;5046910;28;20515;-37
2022/11/19 01:06:45;;;;;;;39.57;26.80;;;;;;;;;;5047665;28;20240;-37
2022/11/19 01:09:12;;;;;;;38.33;27.43;;;;;;;;;;5051598;28;20456;-37
2022/11/19 01:11:39;;;;;;;45.43;30.50;;;;;;;;;;5051593;28;20420;-37
2022/11/19 01:14:05;;;;;;;48.57;30.73;;;;;;;;;;5051671;28;20498;-37
2022/11/19 01:16:33;;;;;;;48.20;29.37;;;;;;;;;;5050725;28;20424;-37
2022/11/19 01:18:59;;;;;;;42.87;30.27;;;;;;;;;;5054121;28;20424;-37
2022/11/19 01:21:27;;;;;;;40.53;29.27;;;;;;;;;;5052476;28;20189;-37
2022/11/19 01:23:53;;;;;;;38.47;27.80;;;;;;;;;;5046465;28;20459;-37
2022/11/19 01:26:19;;;;;;;41.47;30.00;;;;;;;;;;5037001;28;20504;-37
2022/11/19 01:28:45;;;;;;;41.23;28.43;;;;;;;;;;5042594;28;21181;-37
2022/11/19 01:31:16;;;;;;;37.37;26.90;;;;;;;;;;5021659;28;20784;-37
2022/11/19 01:33:43;;;;;;;42.03;27.97;;;;;;;;;;5048700;28;20424;-37
2022/11/19 01:36:19;;;;;;;38.30;27.73;;;;;;;;;;5051298;28;20178;-37
2022/11/19 01:38:53;;;;;;;38.57;25.80;;;;;;;;;;5047085;28;20178;-37
2022/11/19 01:41:23;;;;;;;39.23;27.10;;;;;;;;;;5053842;28;20530;-37
2022/11/19 01:43:51;;;;;;;37.03;27.00;;;;;;;;;;5049896;28;20457;-37
2022/11/19 01:46:19;;;;;;;40.13;28.60;;;;;;;;;;5048619;28;20893;-37
2022/11/19 01:48:47;;;;;;;42.53;28.80;;;;;;;;;;5050019;28;20179;-37
2022/11/19 01:51:16;;;;;;;36.87;27.63;;;;;;;;;;5053576;28;20467;-37
2022/11/19 01:53:43;;;;;;;41.77;29.37;;;;;;;;;;5053792;28;21085;-37
2022/11/19 01:56:09;;;;;;;45.23;28.83;;;;;;;;;;5047642;28;21540;-37
2022/11/19 01:58:47;;;;;;;49.17;32.47;;;;;;;;;;5049633;28;20436;-37
2022/11/19 02:01:14;;;;;;;45.57;30.83;;;;;;;;;;5049567;28;20182;-37
2022/11/19 02:03:40;;;;;;;50.07;33.13;;;;;;;;;;5050308;28;20975;-37
2022/11/19 02:06:07;;;;;;;48.13;31.03;;;;;;;;;;5050088;28;21060;-37
2022/11/19 02:08:41;;;;;;;42.67;29.73;;;;;;;;;;5047247;28;20531;-37
2022/11/19 02:11:21;;;;;;;45.33;30.40;;;;;;;;;;5050973;28;20433;-37
2022/11/19 02:13:58;;;;;;;47.03;31.53;;;;;;;;;;5047926;28;20454;-37
2022/11/19 02:16:24;;;;;;;46.27;30.80;;;;;;;;;;5040421;28;20429;-37
2022/11/19 02:18:59;;;;;;;46.87;31.67;;;;;;;;;;5053179;28;20424;-37
2022/11/19 02:21:25;;;;;;;51.73;35.43;;;;;;;;;;5048705;28;21456;-37
2022/11/19 02:23:58;;;;;;;54.27;35.53;;;;;;;;;;5027872;28;20511;-37
2022/11/19 02:26:43;;;;;;;56.60;34.23;;;;;;;;;;5050076;28;21004;-37
2022/11/19 02:29:17;;;;;;;49.30;33.87;;;;;;;;;;5050505;28;20467;-37
2022/11/19 02:31:49;;;;;;;58.13;36.90;;;;;;;;;;5046776;28;20539;-37
2022/11/19 02:34:21;;;;;;;49.57;33.33;;;;;;;;;;5052326;28;20275;-37
2022/11/19 02:36:51;;;;;;;55.47;35.03;;;;;;;;;;5052434;28;20550;-37
2022/11/19 02:39:38;;;;;;;48.13;33.67;;;;;;;;;;5047742;28;20464;-37
2022/11/19 02:42:09;;;;;;;52.30;35.10;;;;;;;;;;5053384;28;20437;-37
2022/11/19 02:47:23;;;;;;;46.30;31.57;;;;;;;;;;5048691;28;20696;-37
2022/11/19 02:49:51;;;;;;;43.63;30.23;;;;;;;;;;5052362;28;20424;-37
2022/11/19 02:52:18;;;;;;;51.67;32.87;;;;;;;;;;5048575;28;20662;-37
2022/11/19 02:54:44;;;;;;;51.60;34.20;;;;;;;;;;5047230;28;20654;-37
2022/11/19 02:57:11;;;;;;;53.23;35.13;;;;;;;;;;5049347;28;20210;-37
2022/11/19 03:06:02;;;;;;;52.53;34.17;;;;;;;;;;5008204;28;20569;-37
2022/11/19 03:08:28;;;;;;;63.50;39.13;;;;;;;;;;5004939;28;20438;-37
2022/11/19 03:11:00;;;;;;;59.80;35.63;;;;;;;;;;5022852;28;20855;-37
2022/11/19 03:19:10;;;;;;;61.53;36.73;;;;;;;;;;5042716;28;20796;-37
2022/11/19 03:21:43;;;;;;;53.50;32.83;;;;;;;;;;5043425;28;20421;-37
2022/11/19 03:24:21;;;;;;;55.93;34.27;;;;;;;;;;5045004;28;20802;-37
2022/11/19 03:26:53;;;;;;;53.47;34.50;;;;;;;;;;5041202;28;20947;-37
2022/11/19 03:29:19;;;;;;;50.87;33.53;;;;;;;;;;5049301;28;20460;-37
2022/11/19 03:31:51;;;;;;;56.50;33.57;;;;;;;;;;5044252;28;20425;-37
2022/11/19 03:34:19;;;;;;;65.33;38.37;;;;;;;;;;5043105;28;20445;-37
2022/11/19 03:36:47;;;;;;;69.00;38.97;;;;;;;;;;5050045;28;21015;-37
2022/11/19 03:39:16;;;;;;;75.63;42.27;;;;;;;;;;5052865;28;20436;-37
2022/11/19 03:41:44;;;;;;;69.07;38.43;;;;;;;;;;5047628;28;20429;-37
2022/11/19 03:44:13;;;;;;;61.03;36.33;;;;;;;;;;5045282;28;21058;-37
2022/11/19 03:46:40;;;;;;;66.43;38.33;;;;;;;;;;5045539;28;20440;-37
2022/11/19 03:49:07;;;;;;;57.57;35.40;;;;;;;;;;5051999;28;20451;-37
2022/11/19 03:51:46;;;;;;;61.93;34.57;;;;;;;;;;5046045;28;21030;-37
2022/11/19 03:54:12;;;;;;;68.20;40.17;;;;;;;;;;5048074;28;20428;-37
2022/11/19 03:56:39;;;;;;;86.97;43.07;;;;;;;;;;5048685;28;21046;-37
2022/11/19 03:59:06;;;;;;;66.40;39.90;;;;;;;;;;5046642;28;20440;-37
2022/11/19 04:01:32;;;;;;;81.23;43.60;;;;;;;;;;5047348;28;20788;-37
2022/11/19 04:06:44;;;;;;;82.27;43.13;;;;;;;;;;5045397;28;20435;-37
2022/11/19 04:09:10;;;;;;;75.57;41.83;;;;;;;;;;5042761;28;20881;-37
2022/11/19 04:11:36;;;;;;;91.47;44.47;;;;;;;;;;5049380;28;20440;-37
2022/11/19 04:14:02;;;;;;;88.33;46.00;;;;;;;;;;5051385;28;21875;-37
2022/11/19 04:16:28;;;;;;;107.33;50.27;;;;;;;;;;5040268;28;21207;-37
2022/11/19 04:18:54;;;;;;;146.73;60.30;;;;;;;;;;5043494;28;20433;-37
2022/11/19 04:21:20;;;;;;;96.30;48.80;;;;;;;;;;5045911;28;20437;-37
2022/11/19 04:23:46;;;;;;;94.60;47.07;;;;;;;;;;5045598;28;20458;-37
2022/11/19 04:26:12;;;;;;;117.83;53.77;;;;;;;;;;5044338;28;20761;-37
2022/11/19 04:28:38;;;;;;;105.93;52.13;;;;;;;;;;5051129;28;21148;-37
2022/11/19 04:31:05;;;;;;;195.47;65.47;;;;;;;;;;5040612;28;20431;-37
2022/11/19 04:33:31;;;;;;;108.97;50.93;;;;;;;;;;5043245;28;20424;-37
2022/11/19 04:35:57;;;;;;;123.53;56.63;;;;;;;;;;5049499;28;20909;-37
2022/11/19 04:38:23;;;;;;;83.87;46.47;;;;;;;;;;5045484;28;20888;-37
2022/11/19 04:40:49;;;;;;;89.87;46.80;;;;;;;;;;5042578;28;20434;-37
2022/11/19 04:43:15;;;;;;;99.17;49.13;;;;;;;;;;5042592;28;20448;-37
2022/11/19 04:45:41;;;;;;;103.07;50.27;;;;;;;;;;5047071;28;20433;-37
2022/11/19 04:48:07;;;;;;;91.63;49.70;;;;;;;;;;5042025;28;20514;-37
2022/11/19 04:50:33;;;;;;;107.23;50.77;;;;;;;;;;5044769;28;20495;-37
2022/11/19 04:52:59;;;;;;;121.97;54.30;;;;;;;;;;5051966;28;20435;-37
2022/11/19 04:55:26;;;;;;;149.53;64.63;;;;;;;;;;5046977;28;20714;-37
2022/11/19 04:57:52;;;;;;;125.57;53.20;;;;;;;;;;5045002;28;20447;-37
2022/11/19 05:00:19;;;;;;;113.40;51.53;;;;;;;;;;5048113;28;20471;-37
2022/11/19 05:02:45;;;;;;;125.50;56.33;;;;;;;;;;5048620;28;21382;-37
2022/11/19 05:05:11;;;;;;;120.47;55.20;;;;;;;;;;5045589;28;20893;-37
2022/11/19 05:07:37;;;;;;;120.40;54.30;;;;;;;;;;5051597;28;20441;-37
2022/11/19 05:10:04;;;;;;;85.60;45.90;;;;;;;;;;5054957;28;20975;-37
2022/11/19 05:12:30;;;;;;;73.00;41.30;;;;;;;;;;5048174;28;20464;-37
2022/11/19 05:14:56;;;;;;;67.50;41.50;;;;;;;;;;5048238;28;20433;-37
2022/11/19 05:17:22;;;;;;;75.07;44.60;;;;;;;;;;5049075;28;21000;-37
2022/11/19 05:19:48;;;;;;;53.20;35.10;;;;;;;;;;5026980;28;20429;-37
2022/11/19 05:22:15;;;;;;;92.40;47.87;;;;;;;;;;5046440;28;20436;-37
2022/11/19 05:24:41;;;;;;;128.90;58.63;;;;;;;;;;5050058;28;20766;-37
2022/11/19 05:27:07;;;;;;;125.20;54.90;;;;;;;;;;5046425;28;20424;-37
2022/11/19 05:29:33;;;;;;;85.23;44.07;;;;;;;;;;5048691;28;20818;-37
2022/11/19 05:31:59;;;;;;;85.50;45.67;;;;;;;;;;5048138;28;21113;-37
2022/11/19 05:34:25;;;;;;;100.10;48.83;;;;;;;;;;5049713;28;20429;-37
2022/11/19 05:36:51;;;;;;;121.60;52.80;;;;;;;;;;5046827;28;20527;-37
2022/11/19 05:39:17;;;;;;;122.47;50.60;;;;;;;;;;5052296;28;20490;-37
2022/11/19 05:41:43;;;;;;;120.77;51.20;;;;;;;;;;5051551;28;21328;-37
2022/11/19 05:44:09;;;;;;;125.73;52.87;;;;;;;;;;5052983;28;20460;-37
2022/11/19 05:46:35;;;;;;;128.50;54.37;;;;;;;;;;5048686;28;20961;-37
2022/11/19 05:49:01;;;;;;;138.10;55.13;;;;;;;;;;5050938;28;20432;-37
2022/11/19 05:51:27;;;;;;;121.13;51.67;;;;;;;;;;5052761;28;20462;-37
2022/11/19 05:53:54;;;;;;;135.53;55.70;;;;;;;;;;5049903;28;20429;-37
2022/11/19 05:56:20;;;;;;;148.37;57.50;;;;;;;;;;5052901;28;20455;-37
2022/11/19 05:58:46;;;;;;;130.70;55.30;;;;;;;;;;5051345;28;20650;-37
2022/11/19 06:01:13;;;;;;;167.10;61.30;;;;;;;;;;5051176;28;21248;-38
2022/11/19 06:03:40;;;;;;;208.57;70.40;;;;;;;;;;5052776;28;20461;-37
2022/11/19 06:06:06;;;;;;;157.13;61.43;;;;;;;;;;5049202;28;20433;-37
2022/11/19 06:08:32;;;;;;;165.40;61.70;;;;;;;;;;5047243;28;20420;-37
2022/11/19 06:11:02;;;;;;;227.63;69.13;;;;;;;;;;5049452;28;20879;-37
2022/11/19 06:13:28;;;;;;;178.47;66.37;;;;;;;;;;5053486;28;20773;-37
2022/11/19 06:15:54;;;;;;;222.10;75.00;;;;;;;;;;5045615;28;22480;-37
2022/11/19 06:18:20;;;;;;;196.13;74.50;;;;;;;;;;5042593;28;21299;-37
2022/11/19 06:20:46;;;;;;;176.67;69.93;;;;;;;;;;5048468;28;20845;-37
2022/11/19 06:23:12;;;;;;;145.37;61.30;;;;;;;;;;5048850;28;20459;-36
2022/11/19 06:25:38;;;;;;;125.70;54.63;;;;;;;;;;5041103;28;20932;-37
2022/11/19 06:28:04;;;;;;;137.47;56.80;;;;;;;;;;5050030;28;20429;-37
2022/11/19 06:30:30;;;;;;;127.30;54.93;;;;;;;;;;5047859;28;20924;-37
2022/11/19 06:32:56;;;;;;;145.20;61.60;;;;;;;;;;5029674;28;20432;-37
2022/11/19 06:35:23;;;;;;;139.37;60.07;;;;;;;;;;5049984;28;21181;-37
2022/11/19 06:37:49;;;;;;;148.37;58.43;;;;;;;;;;5052136;28;20424;-37
2022/11/19 06:40:15;;;;;;;205.47;69.50;;;;;;;;;;5050612;28;20477;-37
2022/11/19 06:42:41;;;;;;;281.53;82.90;;;;;;;;;;5041307;28;20984;-37
2022/11/19 06:45:11;;;;;;;205.57;70.03;;;;;;;;;;5049324;28;20460;-37
2022/11/19 06:47:38;;;;;;;252.33;79.53;;;;;;;;;;5042946;28;21244;-37
2022/11/19 06:50:05;;;;;;;260.07;78.40;;;;;;;;;;5045631;28;20428;-37
2022/11/19 06:52:31;;;;;;;263.33;78.80;;;;;;;;;;5050255;28;20791;-37
2022/11/19 06:54:57;;;;;;;202.67;69.00;;;;;;;;;;5054047;28;21001;-38
2022/11/19 06:57:23;;;;;;;224.10;76.87;;;;;;;;;;5051180;28;20432;-37
2022/11/19 06:59:50;;;;;;;281.60;87.47;;;;;;;;;;5045740;28;20878;-37
2022/11/19 07:02:16;;;;;;;238.27;79.27;;;;;;;;;;5052653;28;20420;-38
2022/11/19 07:04:42;;;;;;;224.90;73.17;;;;;;;;;;5051091;28;20466;-37
2022/11/19 07:07:09;;;;;;;196.77;70.03;;;;;;;;;;5045166;28;20692;-37
2022/11/19 07:09:35;;;;;;;210.17;74.03;;;;;;;;;;5046548;28;20424;-38
2022/11/19 07:12:01;;;;;;;187.70;70.13;;;;;;;;;;5052425;28;20428;-38
2022/11/19 07:14:27;;;;;;;210.00;74.37;;;;;;;;;;5049044;28;20489;-38
2022/11/19 07:16:53;;;;;;;199.43;69.13;;;;;;;;;;5041040;28;20443;-38
2022/11/19 07:19:19;;;;;;;203.23;70.80;;;;;;;;;;5046270;28;20773;-37
2022/11/19 07:21:45;;;;;;;189.27;66.73;;;;;;;;;;5046360;28;20748;-38
2022/11/19 07:24:11;;;;;;;188.20;66.33;;;;;;;;;;5046806;28;20495;-38
2022/11/19 07:26:38;;;;;;;295.77;82.83;;;;;;;;;;5048073;28;20432;-37
2022/11/19 07:29:05;;;;;;;225.57;72.83;;;;;;;;;;5051861;28;21065;-38
2022/11/19 07:31:31;;;;;;;214.43;71.13;;;;;;;;;;5046286;28;20424;-37
2022/11/19 07:33:58;;;;;;;229.63;71.43;;;;;;;;;;5046509;28;20424;-38
2022/11/19 07:36:24;;;;;;;269.40;82.03;;;;;;;;;;5048734;28;20973;-38
2022/11/19 07:38:51;;;;;;;222.80;71.53;;;;;;;;;;5043843;28;20494;-38
2022/11/19 07:44:03;;;;;;;234.10;76.70;;;;;;;;;;5050704;28;20498;-38
2022/11/19 07:46:29;;;;;;;227.97;74.07;;;;;;;;;;5047739;28;20535;-38
2022/11/19 07:48:56;;;;;;;189.47;69.43;;;;;;;;;;5046975;28;20444;-38
2022/11/19 07:51:23;;;;;;;208.63;78.27;;;;;;;;;;5048627;28;20662;-38
2022/11/19 07:53:49;;;;;;;164.07;75.33;;;;;;;;;;5048394;28;20455;-36
2022/11/19 07:56:15;;;;;;;201.70;77.23;;;;;;;;;;5045939;28;20800;-37
2022/11/19 07:58:41;;;;;;;275.20;93.97;;;;;;;;;;5049153;28;20420;-37
2022/11/19 08:01:09;;;;;;;206.50;84.87;;;;;;;;;;5053515;28;20615;-37
2022/11/19 08:03:35;;;;;;;239.13;90.13;;;;;;;;;;5049250;28;20645;-37
2022/11/19 08:06:07;;;;;;;184.67;81.33;;;;;;;;;;5030682;28;20297;-37
2022/11/19 08:08:33;;;;;;;156.70;74.73;;;;;;;;;;5053482;28;20619;-37
2022/11/19 08:11:03;;;;;;;171.83;76.77;;;;;;;;;;5048073;28;20452;-37
2022/11/19 08:13:30;;;;;;;337.43;104.70;;;;;;;;;;5046151;28;20482;-37
2022/11/19 08:19:06;;;;;;;324.63;100.93;;;;;;;;;;5049294;28;21232;-36
2022/11/19 08:21:32;;;;;;;306.87;105.27;;;;;;;;;;5047724;28;20433;-37
2022/11/19 08:23:58;;;;;;;288.27;106.67;;;;;;;;;;5045720;28;20933;-37
2022/11/19 08:26:24;;;;;;;175.00;81.40;;;;;;;;;;5050223;28;20421;-37
2022/11/19 08:28:50;;;;;;;178.73;84.53;;;;;;;;;;5044466;28;20633;-37
2022/11/19 08:31:16;;;;;;;223.63;93.37;;;;;;;;;;5046764;28;20529;-38
2022/11/19 08:33:43;;;;;;;212.13;91.03;;;;;;;;;;5050837;28;20877;-37
2022/11/19 08:36:09;;;;;;;154.20;76.27;;;;;;;;;;5050432;28;21008;-37
2022/11/19 08:38:35;;;;;;;210.00;91.67;;;;;;;;;;5046113;28;20432;-38
2022/11/19 08:43:46;;;;;;;207.33;85.33;;;;;;;;;;5049361;28;20460;-38
2022/11/19 08:46:12;;;;;;;225.23;86.47;;;;;;;;;;5045800;28;20423;-38
2022/11/19 08:48:38;;;;;;;180.27;75.33;;;;;;;;;;5044047;28;20424;-38
2022/11/19 08:51:05;;;;;;;241.57;86.73;;;;;;;;;;5044940;28;20179;-38
2022/11/19 08:53:31;;;;;;;258.47;89.37;;;;;;;;;;5050765;28;20421;-38
2022/11/19 08:55:57;;;;;;;350.83;95.97;;;;;;;;;;5046017;28;20518;-37
2022/11/19 08:58:23;;;;;;;236.80;91.37;;;;;;;;;;5046746;28;20590;-37
2022/11/19 09:00:50;;;;;;;175.13;75.77;;;;;;;;;;5045485;28;20436;-37
2022/11/19 09:03:16;;;;;;;221.20;84.03;;;;;;;;;;5050159;28;20223;-37
2022/11/19 09:05:42;;;;;;;348.53;95.90;;;;;;;;;;5050787;28;20445;-37
2022/11/19 09:08:08;;;;;;;219.80;81.70;;;;;;;;;;5043498;28;20508;-37
2022/11/19 09:10:36;;;;;;;193.13;71.10;;;;;;;;;;5046936;28;20177;-37
2022/11/19 09:13:02;;;;;;;340.70;95.53;;;;;;;;;;5053391;28;20452;-37
2022/11/19 09:15:28;;;;;;;233.50;84.00;;;;;;;;;;5052852;28;20468;-37
2022/11/19 09:17:55;;;;;;;192.80;77.97;;;;;;;;;;5047522;28;21177;-37
2022/11/19 09:20:21;;;;;;;231.30;81.17;;;;;;;;;;5045450;28;20816;-38
2022/11/19 09:22:47;;;;;;;171.00;71.20;;;;;;;;;;5050004;28;20200;-38
2022/11/19 09:25:13;;;;;;;170.20;70.47;;;;;;;;;;5049845;28;20242;-37
2022/11/19 09:27:39;;;;;;;136.03;64.00;;;;;;;;;;5013092;28;20786;-37
2022/11/19 09:30:06;;;;;;;131.40;60.93;;;;;;;;;;5013619;28;20184;-37
2022/11/19 09:32:32;;;;;;;130.07;61.90;;;;;;;;;;5011592;28;20726;-37
2022/11/19 09:34:59;;;;;;;154.73;70.87;;;;;;;;;;5009658;28;20262;-37
2022/11/19 09:37:25;;;;;;;171.83;71.17;;;;;;;;;;5007362;28;20885;-37
2022/11/19 09:39:51;;;;;;;162.70;71.33;;;;;;;;;;5013597;28;20200;-37
2022/11/19 09:42:31;;;;;;;148.87;70.57;;;;;;;;;;5007738;28;20176;-37
2022/11/19 09:45:15;;;;;;;172.93;72.30;;;;;;;;;;5008964;28;20617;-37
2022/11/19 09:47:51;;;;;;;165.47;73.60;;;;;;;;;;5010839;28;20504;-37
2022/11/19 09:50:24;;;;;;;158.67;69.30;;;;;;;;;;5011618;28;20191;-37
2022/11/19 09:52:59;;;;;;;171.23;71.70;;;;;;;;;;5008768;28;20717;-38
2022/11/19 09:55:34;;;;;;;175.40;72.83;;;;;;;;;;5005288;28;20203;-37
2022/11/19 09:58:03;;;;;;;191.23;77.80;;;;;;;;;;5008099;28;20179;-37
2022/11/19 10:00:30;;;;;;;196.93;76.93;;;;;;;;;;5007602;28;20186;-38
2022/11/19 10:02:57;;;;;;;196.23;76.70;;;;;;;;;;5014077;28;20866;-37
2022/11/19 10:05:29;;;;;;;198.07;78.07;;;;;;;;;;5011249;28;21224;-37
2022/11/19 10:08:04;;;;;;;211.10;81.67;;;;;;;;;;5011778;28;20345;-37
2022/11/19 10:10:39;;;;;;;205.47;82.07;;;;;;;;;;5009481;28;20957;-37
2022/11/19 10:13:11;;;;;;;196.07;79.50;;;;;;;;;;5005626;28;20169;-37
2022/11/19 10:15:54;;;;;;;229.80;86.73;;;;;;;;;;5010441;28;20469;-37
2022/11/19 10:18:24;;;;;;;240.67;91.37;;;;;;;;;;5013718;28;20179;-37
2022/11/19 10:20:53;;;;;;;215.70;86.00;;;;;;;;;;5010120;28;20843;-38
2022/11/19 10:23:22;;;;;;;187.20;82.10;;;;;;;;;;5007864;28;20230;-38
2022/11/19 10:25:50;;;;;;;169.10;74.10;;;;;;;;;;5014582;28;20203;-38
2022/11/19 10:28:21;;;;;;;190.27;82.10;;;;;;;;;;5012484;28;20568;-37
2022/11/19 10:30:49;;;;;;;189.33;79.07;;;;;;;;;;5009840;28;21084;-37
2022/11/19 10:33:25;;;;;;;209.90;84.40;;;;;;;;;;5009815;28;20370;-37
2022/11/19 10:35:53;;;;;;;183.37;78.97;;;;;;;;;;5013907;28;20172;-37
2022/11/19 10:38:26;;;;;;;186.87;79.97;;;;;;;;;;5011630;28;20625;-37
2022/11/19 10:40:58;;;;;;;213.27;83.57;;;;;;;;;;5007019;28;20574;-37
2022/11/19 10:43:47;;;;;;;170.27;73.97;;;;;;;;;;5009866;28;20204;-37
2022/11/19 10:46:14;;;;;;;199.23;81.23;;;;;;;;;;5012238;28;20290;-37
2022/11/19 10:48:47;;;;;;;178.83;74.93;;;;;;;;;;5015575;28;20207;-37
2022/11/19 10:51:24;;;;;;;187.13;78.63;;;;;;;;;;5013650;28;21004;-38
2022/11/19 10:53:51;;;;;;;178.07;73.53;;;;;;;;;;5007919;28;20249;-38
2022/11/19 10:56:20;;;;;;;198.73;76.90;;;;;;;;;;5010143;28;20402;-38
2022/11/19 10:58:47;;;;;;;200.93;78.17;;;;;;;;;;5013053;28;20752;-38
2022/11/19 11:01:16;;;;;;;180.00;71.87;;;;;;;;;;5011905;28;20603;-38
2022/11/19 11:03:50;;;;;;;144.87;58.27;;;;;;;;;;5008967;28;20206;-38
2022/11/19 11:06:16;;;;;;;129.37;53.93;;;;;;;;;;5003650;28;20168;-38
2022/11/19 11:08:51;;;;;;;122.83;52.87;;;;;;;;;;5008141;28;20227;-37
2022/11/19 11:14:50;;;;;;;114.27;49.90;;;;;;;;;;5012884;28;20750;-37
2022/11/19 11:16:59;;;;;;;91.27;43.47;;;;;;;;;;5010161;28;20693;-37
2022/11/19 11:19:26;;;;;;;99.40;45.93;;;;;;;;;;5010551;28;20168;-38
2022/11/19 11:21:53;;;;;;;98.70;46.97;;;;;;;;;;5012384;28;20172;-37
2022/11/19 11:24:19;;;;;;;94.67;45.07;;;;;;;;;;5010385;28;20270;-37
2022/11/19 11:26:45;;;;;;;98.23;45.70;;;;;;;;;;5007702;28;20173;-38
2022/11/19 11:29:14;;;;;;;96.83;44.43;;;;;;;;;;5012284;28;20648;-38
2022/11/19 11:31:44;;;;;;;96.20;43.60;;;;;;;;;;5011678;28;20172;-38
2022/11/19 11:34:30;;;;;;;90.73;41.77;;;;;;;;;;5007443;28;20184;-37
2022/11/19 11:36:56;;;;;;;83.67;38.60;;;;;;;;;;5011392;28;20186;-37
2022/11/19 11:39:34;;;;;;;94.30;41.20;;;;;;;;;;5009143;28;21317;-38
2022/11/19 11:42:00;;;;;;;83.53;39.10;;;;;;;;;;5009508;28;20406;-38
2022/11/19 11:44:28;;;;;;;82.20;38.00;;;;;;;;;;5012671;28;20208;-38
2022/11/19 11:46:55;;;;;;;83.27;38.53;;;;;;;;;;5013533;28;20425;-37
2022/11/19 11:49:28;;;;;;;79.67;38.17;;;;;;;;;;5005981;28;20275;-37
2022/11/19 11:52:00;;;;;;;74.63;36.97;;;;;;;;;;5012943;28;20259;-37
2022/11/19 11:54:26;;;;;;;74.67;35.77;;;;;;;;;;5017667;28;20420;-37
2022/11/19 11:56:52;;;;;;;75.83;35.63;;;;;;;;;;5007437;28;20960;-39
2022/11/19 11:59:21;;;;;;;79.97;37.40;;;;;;;;;;5008966;28;20177;-37
2022/11/19 12:02:00;;;;;;;76.07;35.60;;;;;;;;;;5013799;28;20808;-37
2022/11/19 12:04:27;;;;;;;77.03;35.43;;;;;;;;;;5010319;28;20225;-37
2022/11/19 12:06:59;;;;;;;70.83;34.83;;;;;;;;;;5008305;28;20814;-37
2022/11/19 12:09:29;;;;;;;72.13;34.00;;;;;;;;;;5010755;28;20897;-36
2022/11/19 12:12:09;;;;;;;62.83;32.03;;;;;;;;;;5007206;28;20180;-37
2022/11/19 12:14:44;;;;;;;58.83;31.07;;;;;;;;;;5012650;28;20184;-38
2022/11/19 12:17:26;;;;;;;61.40;30.80;;;;;;;;;;5015992;28;20172;-38
2022/11/19 12:20:11;;;;;;;57.53;29.43;;;;;;;;;;5008756;28;20215;-38
2022/11/19 12:22:45;;;;;;;51.00;28.30;;;;;;;;;;5009610;28;20628;-36
2022/11/19 12:25:20;;;;;;;51.40;26.77;;;;;;;;;;5012175;28;20200;-38
2022/11/19 12:27:49;;;;;;;41.40;24.17;;;;;;;;;;5011354;28;20178;-37
2022/11/19 12:30:18;;;;;;;44.37;23.90;;;;;;;;;;5007301;28;20180;-38
2022/11/19 12:32:47;;;;;;;40.30;22.33;;;;;;;;;;5008816;28;20586;-37
2022/11/19 12:35:19;;;;;;;40.03;22.50;;;;;;;;;;5014489;28;21085;-37
2022/11/19 12:38:08;;;;;;;39.70;22.70;;;;;;;;;;5007697;28;20219;-38
2022/11/19 12:40:40;;;;;;;39.63;22.13;;;;;;;;;;4999041;28;20193;-37
2022/11/19 12:43:12;;;;;;;35.80;22.43;;;;;;;;;;5012659;28;20671;-38
2022/11/19 12:45:42;;;;;;;41.50;22.83;;;;;;;;;;5016485;28;20223;-37
2022/11/19 12:48:14;;;;;;;41.57;24.07;;;;;;;;;;5009754;28;20977;-37
2022/11/19 12:50:52;;;;;;;42.63;22.90;;;;;;;;;;5006228;28;20263;-37
2022/11/19 12:53:27;;;;;;;33.80;20.73;;;;;;;;;;5011735;28;20168;-37
2022/11/19 12:56:04;;;;;;;40.07;23.53;;;;;;;;;;5010661;28;20173;-37
2022/11/19 12:58:49;;;;;;;46.40;23.77;;;;;;;;;;5006676;28;20489;-37
2022/11/19 13:01:17;;;;;;;41.50;22.60;;;;;;;;;;5010217;28;20177;-36
2022/11/19 13:03:43;;;;;;;40.23;22.10;;;;;;;;;;5013530;28;20533;-36
2022/11/19 13:06:13;;;;;;;39.10;22.23;;;;;;;;;;5005755;28;20383;-36
2022/11/19 13:08:42;;;;;;;43.87;23.57;;;;;;;;;;5007708;28;20184;-38
2022/11/19 13:11:08;;;;;;;50.53;27.80;;;;;;;;;;5010013;28;20267;-36
2022/11/19 13:13:37;;;;;;;54.70;29.73;;;;;;;;;;5014696;28;20180;-37
2022/11/19 13:16:06;;;;;;;61.70;31.30;;;;;;;;;;5010750;28;20597;-37
2022/11/19 13:18:34;;;;;;;61.63;33.77;;;;;;;;;;5005901;28;20425;-38
2022/11/19 13:21:02;;;;;;;63.20;34.70;;;;;;;;;;5008095;28;20176;-38
2022/11/19 13:23:40;;;;;;;74.60;37.23;;;;;;;;;;5009356;28;20176;-37
2022/11/19 13:26:10;;;;;;;65.27;35.47;;;;;;;;;;5011363;28;20172;-37
2022/11/19 13:28:43;;;;;;;71.77;38.33;;;;;;;;;;5008299;28;20176;-37
2022/11/19 13:31:32;;;;;;;76.40;39.33;;;;;;;;;;5014608;28;21024;-37
2022/11/19 13:34:18;;;;;;;72.67;37.43;;;;;;;;;;5005289;28;20192;-37
2022/11/19 13:36:48;;;;;;;77.23;39.33;;;;;;;;;;5013264;28;20687;-37
2022/11/19 13:39:20;;;;;;;75.13;38.53;;;;;;;;;;5014036;28;20183;-37
2022/11/19 13:44:40;;;;;;;73.73;36.23;;;;;;;;;;5011755;28;20751;-37
2022/11/19 13:47:12;;;;;;;84.60;37.30;;;;;;;;;;5017398;28;20356;-37
2022/11/19 13:49:41;;;;;;;73.17;34.43;;;;;;;;;;5011241;28;20604;-37
2022/11/19 13:52:07;;;;;;;72.40;34.03;;;;;;;;;;5007205;28;20176;-37
2022/11/19 13:54:38;;;;;;;70.27;34.57;;;;;;;;;;5014254;28;20176;-38
2022/11/19 13:57:05;;;;;;;60.13;32.97;;;;;;;;;;5014900;28;20941;-37
2022/11/19 13:59:49;;;;;;;77.97;34.47;;;;;;;;;;5013439;28;20814;-36
2022/11/19 14:02:15;;;;;;;66.10;33.53;;;;;;;;;;5016887;28;20168;-36
2022/11/19 14:04:41;;;;;;;76.43;35.77;;;;;;;;;;5012276;28;21072;-36
2022/11/19 14:07:17;;;;;;;75.30;35.53;;;;;;;;;;5013803;28;20172;-36
2022/11/19 14:10:02;;;;;;;74.53;35.10;;;;;;;;;;5014964;28;20183;-36
2022/11/19 14:13:00;;;;;;;69.00;33.13;;;;;;;;;;5016467;28;20496;-36
2022/11/19 14:27:12;;;;;;;66.57;33.37;;;;;;;;;;5015067;28;20467;-37
2022/11/19 14:29:44;;;;;;;69.47;34.00;;;;;;;;;;5016900;28;20180;-37
2022/11/19 14:32:10;;;;;;;65.17;33.53;;;;;;;;;;5013491;28;20165;-37
2022/11/19 14:34:41;;;;;;;72.00;35.80;;;;;;;;;;5014965;28;20188;-37
2022/11/19 14:37:15;;;;;;;72.10;35.87;;;;;;;;;;5016553;28;20315;-37
2022/11/19 14:39:43;;;;;;;71.93;35.87;;;;;;;;;;5014003;28;20390;-37
2022/11/19 14:42:20;;;;;;;66.37;34.13;;;;;;;;;;5013043;28;20274;-37
2022/11/19 14:44:55;;;;;;;72.60;36.20;;;;;;;;;;5015114;28;20194;-37
2022/11/19 14:47:22;;;;;;;71.10;35.57;;;;;;;;;;5011768;28;20176;-37
2022/11/19 14:49:49;;;;;;;67.30;35.33;;;;;;;;;;5010223;28;20180;-37
2022/11/19 14:52:23;;;;;;;72.27;35.27;;;;;;;;;;5012117;28;20179;-37
2022/11/19 14:55:01;;;;;;;68.03;34.63;;;;;;;;;;5013562;28;20545;-37
2022/11/19 14:57:32;;;;;;;70.27;35.47;;;;;;;;;;5012208;28;20206;-37
2022/11/19 15:00:00;;;;;;;69.70;35.10;;;;;;;;;;5014162;28;20183;-38
2022/11/19 15:02:38;;;;;;;65.70;33.87;;;;;;;;;;5011610;28;20295;-37
2022/11/19 15:05:28;;;;;;;74.87;34.73;;;;;;;;;;5015094;28;20323;-37